Time;durP1;ratioP1;P1;durP2;ratioP2;P2;SDS_P1;SDS_P2;PMS_P1;PMS_P2;Temp;Humidity;BMP_temperature;BMP_pressure;BME280_temperature;BME280_humidity;BME280_pressure;Samples;Min_cycle;Max_cycle;Signal;HPM_P1;HPM_P2
2020/12/02 00:01:57;;;;;;;47.30;24.30;;;;;;;5.92;97.52;100610.00;5071254;28;20061;-77
2020/12/02 00:04:24;;;;;;;37.67;21.27;;;;;;;5.96;97.21;100607.22;5070943;28;20434;-76
2020/12/02 00:06:51;;;;;;;48.65;23.00;;;;;;;5.88;97.62;100613.69;5070859;28;20049;-73
2020/12/02 00:09:21;;;;;;;37.63;21.70;;;;;;;5.87;97.15;100599.56;5061858;28;20377;-77
2020/12/02 00:11:49;;;;;;;47.83;23.77;;;;;;;5.81;96.69;100598.00;5056541;28;20061;-75
2020/12/02 00:14:24;;;;;;;43.25;22.33;;;;;;;5.82;96.61;100615.63;5057535;28;20465;-76
2020/12/02 00:16:51;;;;;;;46.00;24.17;;;;;;;5.79;96.82;100596.31;5056809;28;20053;-77
2020/12/02 00:19:18;;;;;;;43.22;22.83;;;;;;;5.81;96.49;100613.91;5057521;28;20053;-76
2020/12/02 00:22:07;;;;;;;36.65;21.38;;;;;;;5.83;96.89;100612.06;5057532;28;20064;-77
2020/12/02 00:24:34;;;;;;;40.60;23.23;;;;;;;5.79;96.90;100606.94;5057471;28;20064;-75
2020/12/02 00:27:11;;;;;;;42.45;21.35;;;;;;;5.84;97.37;100611.13;5057540;28;20056;-75
2020/12/02 00:29:38;;;;;;;37.08;22.00;;;;;;;5.81;97.27;100616.56;5057424;28;20092;-76
2020/12/02 00:32:04;;;;;;;37.50;22.10;;;;;;;5.76;96.52;100607.88;5039768;28;20057;-75
2020/12/02 00:34:30;;;;;;;33.33;20.50;;;;;;;5.80;96.61;100617.47;5057180;28;20063;-76
2020/12/02 00:36:56;;;;;;;36.38;21.95;;;;;;;5.79;97.08;100607.81;5057351;28;20076;-76
2020/12/02 00:39:23;;;;;;;34.20;20.52;;;;;;;5.75;97.01;100605.28;5057015;28;20102;-76
2020/12/02 00:41:49;;;;;;;32.83;19.95;;;;;;;5.69;96.73;100595.78;5056373;28;20057;-76
2020/12/02 00:44:16;;;;;;;36.10;21.92;;;;;;;5.76;96.67;100605.25;5056040;28;20056;-75
2020/12/02 00:46:47;;;;;;;37.65;21.25;;;;;;;5.73;96.12;100608.00;5055903;28;20045;-76
2020/12/02 00:49:15;;;;;;;38.42;21.73;;;;;;;5.68;96.54;100592.25;5056888;28;20107;-75
2020/12/02 00:51:42;;;;;;;32.15;20.98;;;;;;;5.77;96.88;100601.66;5039633;28;20053;-74
2020/12/02 00:54:08;;;;;;;37.60;20.73;;;;;;;5.57;96.42;100568.78;5056987;28;20060;-74
2020/12/02 00:56:39;;;;;;;39.47;21.05;;;;;;;5.71;96.30;100602.75;5056860;28;20064;-76
2020/12/02 00:59:25;;;;;;;40.42;21.75;;;;;;;5.69;97.22;100601.06;5056967;28;20079;-75
2020/12/02 01:02:01;;;;;;;40.47;21.27;;;;;;;5.73;97.28;100602.72;5056834;28;20052;-75
2020/12/02 01:04:27;;;;;;;44.33;22.50;;;;;;;5.67;97.11;100603.75;5056785;28;20103;-76
2020/12/02 01:06:55;;;;;;;38.10;21.35;;;;;;;5.71;97.05;100604.53;5055586;28;20053;-75
2020/12/02 01:09:23;;;;;;;46.45;23.15;;;;;;;5.70;97.30;100597.50;5055443;28;20053;-75
2020/12/02 01:11:54;;;;;;;35.40;21.73;;;;;;;5.73;97.33;100600.06;5056837;28;20044;-76
2020/12/02 01:14:20;;;;;;;42.97;23.10;;;;;;;5.71;96.83;100600.09;5055708;28;20049;-76
2020/12/02 01:16:50;;;;;;;42.92;23.33;;;;;;;5.67;97.79;100597.63;5056564;28;20304;-75
2020/12/02 01:19:25;;;;;;;43.60;22.97;;;;;;;5.70;97.28;100600.16;5055702;28;20049;-76
2020/12/02 01:22:02;;;;;;;39.88;23.05;;;;;;;5.72;97.11;100603.59;5055780;28;20049;-75
2020/12/02 01:24:49;;;;;;;47.63;23.00;;;;;;;5.75;96.97;100592.91;5055190;28;20140;-76
2020/12/02 01:27:24;;;;;;;41.03;23.05;;;;;;;5.74;97.10;100590.31;5056348;28;20051;-75
2020/12/02 01:29:52;;;;;;;43.08;22.75;;;;;;;5.72;97.21;100587.72;5056193;28;20059;-76
2020/12/02 01:32:19;;;;;;;41.63;23.80;;;;;;;5.75;96.99;100595.56;5056175;28;20057;-75
2020/12/02 01:34:49;;;;;;;40.72;22.15;;;;;;;5.68;97.03;100597.53;5056124;28;20056;-77
2020/12/02 01:37:29;;;;;;;41.55;21.77;;;;;;;5.56;96.60;100585.59;5055832;28;20445;-75
2020/12/02 01:40:25;;;;;;;40.17;21.52;;;;;;;5.67;96.44;100601.09;5055174;28;20108;-75
2020/12/02 01:43:01;;;;;;;42.63;23.38;;;;;;;5.62;96.47;100597.75;5056379;28;20647;-75
2020/12/02 01:45:27;;;;;;;37.75;22.30;;;;;;;5.64;96.33;100605.66;5056013;28;20060;-76
2020/12/02 01:48:40;;;;;;;33.15;20.33;;;;;;;5.63;96.58;100599.50;5056150;28;20045;-76
2020/12/02 01:51:40;;;;;;;39.08;21.00;;;;;;;5.58;95.75;100599.63;5055747;28;20500;-75
2020/12/02 01:54:25;;;;;;;32.10;20.17;;;;;;;5.56;96.44;100595.31;5055817;28;20053;-75
2020/12/02 01:57:12;;;;;;;33.92;21.02;;;;;;;5.60;95.92;100610.19;5055701;28;20053;-76
2020/12/02 01:59:38;;;;;;;39.08;21.42;;;;;;;5.62;96.07;100607.50;5055715;28;20045;-75
2020/12/02 02:02:26;;;;;;;40.55;22.73;;;;;;;5.47;96.55;100582.38;5055550;28;20049;-76
2020/12/02 02:04:55;;;;;;;40.35;22.92;;;;;;;5.55;96.17;100610.34;5055877;28;20056;-75
2020/12/02 02:07:24;;;;;;;41.88;23.75;;;;;;;5.50;96.30;100614.06;5055801;28;20045;-75
2020/12/02 02:09:54;;;;;;;41.15;23.80;;;;;;;5.51;96.65;100614.00;5055896;28;20045;-76
2020/12/02 02:12:36;;;;;;;47.40;24.58;;;;;;;5.47;96.73;100620.31;5055440;28;20052;-76
2020/12/02 02:15:09;;;;;;;47.53;24.38;;;;;;;5.49;96.30;100615.81;5054394;28;20057;-74
2020/12/02 02:17:35;;;;;;;43.50;25.58;;;;;;;5.51;96.71;100615.78;5055451;28;20049;-76
2020/12/02 02:20:04;;;;;;;37.55;22.63;;;;;;;5.61;96.20;100611.91;5054411;28;20324;-75
2020/12/02 02:22:30;;;;;;;42.60;24.00;;;;;;;5.48;96.43;100623.81;5055161;28;20788;-75
2020/12/02 02:24:56;;;;;;;36.80;23.08;;;;;;;5.40;96.62;100614.34;5054982;28;20103;-76
2020/12/02 02:27:25;;;;;;;40.78;22.98;;;;;;;5.35;96.37;100596.88;5055116;28;20069;-75
2020/12/02 02:29:52;;;;;;;46.53;24.65;;;;;;;5.39;96.14;100611.75;5054366;28;20110;-75
2020/12/02 02:32:26;;;;;;;44.28;23.67;;;;;;;5.41;96.30;100607.28;5055020;28;20106;-75
2020/12/02 02:34:56;;;;;;;48.80;24.90;;;;;;;5.42;97.06;100601.94;5055439;28;20064;-75
2020/12/02 02:37:25;;;;;;;48.33;24.02;;;;;;;5.44;96.88;100593.94;5055148;28;20048;-75
2020/12/02 02:39:52;;;;;;;35.38;23.20;;;;;;;5.42;96.44;100604.59;5054942;28;20434;-76
2020/12/02 02:42:33;;;;;;;36.15;21.65;;;;;;;5.38;95.90;100604.72;5053837;28;20048;-74
2020/12/02 02:45:01;;;;;;;40.38;22.80;;;;;;;5.39;97.06;100603.81;5054920;28;20053;-74
2020/12/02 02:47:28;;;;;;;35.15;21.65;;;;;;;5.27;96.12;100598.00;5054766;28;20099;-76
2020/12/02 02:49:55;;;;;;;37.67;21.05;;;;;;;5.39;95.57;100603.81;5054924;28;20056;-75
2020/12/02 02:52:21;;;;;;;36.40;21.88;;;;;;;5.30;95.78;100603.19;5054635;28;20057;-75
2020/12/02 02:54:47;;;;;;;38.97;23.40;;;;;;;5.32;96.06;100607.59;5055183;28;20115;-76
2020/12/02 02:57:13;;;;;;;45.92;24.95;;;;;;;5.34;96.35;100608.38;5054361;28;20061;-75
2020/12/02 02:59:41;;;;;;;36.78;22.30;;;;;;;5.30;96.31;100613.75;5054733;28;20525;-75
2020/12/02 03:02:12;;;;;;;46.08;27.77;;;;;;;5.32;96.37;100607.59;5054722;28;20049;-75
2020/12/02 03:04:39;;;;;;;52.45;28.48;;;;;;;5.23;96.68;100596.34;5054653;28;20052;-74
2020/12/02 03:07:12;;;;;;;46.30;27.80;;;;;;;5.33;96.55;100606.66;5054682;28;20056;-74
2020/12/02 03:09:38;;;;;;;46.35;27.73;;;;;;;5.30;96.16;100603.19;5054759;28;20064;-75
2020/12/02 03:12:04;;;;;;;47.38;27.08;;;;;;;5.25;96.24;100601.59;5054564;28;20057;-75
2020/12/02 03:14:31;;;;;;;44.33;26.92;;;;;;;5.08;96.14;100573.03;5053823;28;20327;-75
2020/12/02 03:16:59;;;;;;;51.47;29.65;;;;;;;5.30;96.79;100600.53;5053625;28;20053;-75
2020/12/02 03:19:30;;;;;;;41.47;25.33;;;;;;;5.30;95.68;100599.69;5054502;28;20083;-75
2020/12/02 03:22:01;;;;;;;43.22;25.65;;;;;;;5.28;96.36;100597.06;5054656;28;20110;-77
2020/12/02 03:24:29;;;;;;;42.80;23.80;;;;;;;5.26;96.57;100588.34;5053741;28;20056;-75
2020/12/02 03:26:55;;;;;;;40.90;23.55;;;;;;;5.29;96.44;100598.81;5054643;28;20060;-75
2020/12/02 03:29:22;;;;;;;43.10;22.60;;;;;;;5.29;96.32;100590.88;5054529;28;20423;-76
2020/12/02 03:31:50;;;;;;;47.63;23.65;;;;;;;5.30;96.66;100592.59;5054383;28;20374;-75
2020/12/02 03:34:19;;;;;;;43.35;22.60;;;;;;;5.30;96.64;100581.16;5054520;28;20461;-75
2020/12/02 03:36:45;;;;;;;46.90;22.60;;;;;;;5.29;96.10;100590.88;5054301;28;20056;-75
2020/12/02 03:39:13;;;;;;;47.60;23.95;;;;;;;5.28;96.55;100586.50;5053584;28;20099;-75
2020/12/02 03:41:41;;;;;;;45.53;23.35;;;;;;;5.26;96.69;100574.22;5054632;28;20053;-75
2020/12/02 03:44:08;;;;;;;50.67;24.60;;;;;;;5.32;96.55;100574.03;5055865;28;20052;-75
2020/12/02 03:46:34;;;;;;;49.90;24.42;;;;;;;5.21;96.56;100570.84;5058403;28;20052;-75
2020/12/02 03:49:02;;;;;;;48.00;25.27;;;;;;;5.25;96.07;100577.78;5058252;28;20045;-76
2020/12/02 03:51:31;;;;;;;53.47;24.10;;;;;;;5.21;97.17;100566.44;5058195;28;20446;-75
2020/12/02 03:53:57;;;;;;;54.53;26.85;;;;;;;5.33;96.74;100574.91;5058239;28;20449;-75
2020/12/02 03:56:26;;;;;;;58.70;25.88;;;;;;;5.20;96.90;100563.81;5058030;28;20049;-76
2020/12/02 03:58:52;;;;;;;59.20;25.83;;;;;;;5.23;97.00;100561.94;5058477;28;20048;-75
2020/12/02 04:01:19;;;;;;;53.47;26.15;;;;;;;5.25;96.62;100573.38;5060101;28;20052;-74
2020/12/02 04:03:46;;;;;;;54.72;26.23;;;;;;;5.29;97.00;100569.69;5059252;28;20140;-74
2020/12/02 04:06:12;;;;;;;56.92;25.60;;;;;;;5.29;97.14;100572.34;5042353;28;20327;-74
2020/12/02 04:08:40;;;;;;;71.10;27.88;;;;;;;5.29;97.27;100566.19;5058230;28;20048;-74
2020/12/02 04:11:08;;;;;;;62.50;27.63;;;;;;;5.30;97.01;100558.19;5057551;28;20430;-73
2020/12/02 04:13:35;;;;;;;61.35;27.40;;;;;;;5.29;96.27;100559.09;5058066;28;20061;-74
2020/12/02 04:16:02;;;;;;;62.05;29.10;;;;;;;5.24;97.04;100553.09;5057061;28;20052;-74
2020/12/02 04:18:29;;;;;;;60.17;26.88;;;;;;;5.26;97.11;100556.56;5057668;28;20072;-75
2020/12/02 04:20:55;;;;;;;68.35;28.48;;;;;;;5.22;96.91;100549.63;5057695;28;20056;-74
2020/12/02 04:23:22;;;;;;;74.72;29.80;;;;;;;5.33;97.02;100565.16;5057554;28;20056;-75
2020/12/02 04:25:48;;;;;;;77.32;30.63;;;;;;;5.32;96.49;100559.94;5057796;28;20049;-76
2020/12/02 04:28:15;;;;;;;93.35;33.30;;;;;;;5.32;96.20;100567.88;5040263;28;20080;-75
2020/12/02 04:30:43;;;;;;;99.18;36.60;;;;;;;5.34;96.67;100568.69;5057363;28;20048;-75
2020/12/02 04:33:11;;;;;;;105.68;38.95;;;;;;;5.31;97.29;100567.00;5057537;28;20056;-75
2020/12/02 04:35:38;;;;;;;121.88;40.30;;;;;;;5.29;96.70;100563.56;5057458;28;20048;-75
2020/12/02 04:38:05;;;;;;;105.38;39.80;;;;;;;5.26;96.83;100564.50;5058272;28;20680;-74
2020/12/02 04:40:42;;;;;;;107.78;40.13;;;;;;;5.26;96.36;100564.50;5057772;28;20057;-73
2020/12/02 04:43:28;;;;;;;84.60;36.67;;;;;;;5.21;96.10;100555.84;5058204;28;20461;-74
2020/12/02 04:45:55;;;;;;;101.78;37.38;;;;;;;5.24;97.00;100571.63;5057864;28;20492;-74
2020/12/02 04:48:27;;;;;;;91.07;37.22;;;;;;;5.21;96.69;100558.50;5057339;28;20053;-75
2020/12/02 04:51:01;;;;;;;87.38;38.00;;;;;;;5.23;96.72;100554.00;5056968;28;20099;-76
2020/12/02 04:53:27;;;;;;;77.85;35.72;;;;;;;5.20;96.51;100547.94;5057135;28;20057;-75
2020/12/02 04:55:57;;;;;;;88.55;34.42;;;;;;;5.25;96.64;100552.19;5057342;28;20049;-74
2020/12/02 04:58:30;;;;;;;74.30;32.92;;;;;;;5.22;96.55;100552.28;5055628;28;20115;-75
2020/12/02 05:01:19;;;;;;;69.07;30.38;;;;;;;5.18;96.27;100549.78;5057202;28;20049;-74
2020/12/02 05:03:50;;;;;;;68.82;32.67;;;;;;;5.18;96.23;100553.31;5056068;28;20114;-74
2020/12/02 05:06:26;;;;;;;65.50;29.92;;;;;;;5.15;96.63;100556.03;5056351;28;20060;-74
2020/12/02 05:09:09;;;;;;;65.97;29.27;;;;;;;5.18;96.92;100549.78;5057075;28;20099;-74
2020/12/02 05:11:37;;;;;;;61.85;28.95;;;;;;;5.21;96.13;100554.97;5068322;28;20080;-75
2020/12/02 05:14:05;;;;;;;57.08;26.10;;;;;;;5.20;94.77;100554.13;5067547;28;20045;-76
2020/12/02 05:16:32;;;;;;;57.83;26.90;;;;;;;5.18;94.81;100545.38;5068661;28;20107;-75
2020/12/02 05:18:59;;;;;;;57.13;27.38;;;;;;;5.16;95.92;100557.78;5065869;28;20053;-74
2020/12/02 05:21:30;;;;;;;56.95;26.17;;;;;;;5.18;95.90;100550.66;5058613;28;20056;-75
2020/12/02 05:24:03;;;;;;;;;;;;;;;5.17;95.78;100554.19;5057130;28;20056;-76
2020/12/02 05:26:34;;;;;;;63.05;25.88;;;;;;;5.08;96.12;100555.38;5055346;28;19930;-76
2020/12/02 05:29:24;;;;;;;62.92;26.52;;;;;;;5.08;96.48;100543.94;5059595;28;20137;-77
2020/12/02 05:31:59;;;;;;;62.78;26.40;;;;;;;5.09;96.78;100540.34;5062526;28;20126;-75
2020/12/02 05:34:29;;;;;;;56.40;26.95;;;;;;;4.93;96.32;100517.06;5058388;28;20053;-76
2020/12/02 05:36:55;;;;;;;58.33;26.13;;;;;;;5.18;97.09;100544.50;5056458;28;20064;-76
2020/12/02 05:39:44;;;;;;;49.65;24.35;;;;;;;5.14;96.32;100543.72;5056230;28;20068;-76
2020/12/02 05:42:20;;;;;;;58.88;26.52;;;;;;;5.05;96.50;100542.25;5056069;28;20357;-78
2020/12/02 05:44:48;;;;;;;62.85;28.95;;;;;;;5.10;96.50;100536.78;5056069;28;20079;-75
2020/12/02 05:47:19;;;;;;;66.88;29.00;;;;;;;5.14;96.39;100538.44;5058520;28;20045;-77
2020/12/02 05:49:50;;;;;;;72.53;30.67;;;;;;;5.15;95.16;100538.41;5055335;28;20060;-77
2020/12/02 05:52:34;;;;;;;86.03;33.75;;;;;;;5.15;95.78;100534.88;5056209;28;20110;-74
2020/12/02 05:55:32;;;;;;;78.03;33.30;;;;;;;5.12;96.58;100538.47;5056160;28;20053;-79
2020/12/02 05:58:13;;;;;;;79.00;33.05;;;;;;;5.11;97.00;100535.88;5055973;28;20430;-79
2020/12/02 06:00:39;;;;;;;90.57;36.10;;;;;;;5.12;96.40;100527.06;5053971;28;20048;-75
2020/12/02 06:03:10;;;;;;;81.25;34.78;;;;;;;5.09;96.24;100535.06;5053437;28;20053;-75
2020/12/02 06:05:36;;;;;;;89.97;34.08;;;;;;;5.09;96.02;100543.88;5052186;28;20669;-76
2020/12/02 06:08:05;;;;;;;77.05;32.63;;;;;;;5.13;95.44;100536.72;5051919;28;20109;-75
2020/12/02 06:10:43;;;;;;;74.28;34.03;;;;;;;5.10;95.15;100536.78;5053536;28;20118;-75
2020/12/02 06:13:33;;;;;;;88.57;34.22;;;;;;;5.05;96.28;100528.16;5051958;28;20040;-74
2020/12/02 06:15:59;;;;;;;83.40;34.97;;;;;;;5.07;96.07;100531.63;5036457;28;20056;-76
2020/12/02 06:18:32;;;;;;;79.82;33.10;;;;;;;5.05;96.72;100528.16;5055246;28;20045;-75
2020/12/02 06:20:59;;;;;;;74.57;31.05;;;;;;;5.09;96.83;100529.78;5055606;28;20051;-74
2020/12/02 06:23:34;;;;;;;72.90;30.55;;;;;;;5.09;96.23;100530.66;5054172;28;20049;-76
2020/12/02 06:26:00;;;;;;;69.20;29.25;;;;;;;5.03;95.73;100538.78;5053614;28;20056;-76
2020/12/02 06:28:29;;;;;;;64.13;28.50;;;;;;;5.06;96.07;100541.31;5055335;28;20391;-75
2020/12/02 06:31:02;;;;;;;63.00;29.52;;;;;;;4.99;96.71;100526.56;5055207;28;20057;-75
2020/12/02 06:33:34;;;;;;;66.35;27.17;;;;;;;5.12;96.52;100537.63;5055239;28;20430;-77
2020/12/02 06:36:09;;;;;;;66.40;27.23;;;;;;;5.13;96.46;100540.22;5055342;28;20312;-77
2020/12/02 06:38:36;;;;;;;64.10;28.42;;;;;;;5.12;96.58;100538.47;5055075;28;20450;-76
2020/12/02 06:41:02;;;;;;;67.45;28.38;;;;;;;5.11;96.33;100535.88;5055344;28;20385;-75
2020/12/02 06:43:44;;;;;;;60.13;26.92;;;;;;;5.11;94.92;100535.88;5054938;28;20052;-78
2020/12/02 06:46:13;;;;;;;58.95;25.75;;;;;;;5.10;94.77;100526.22;5055619;28;20127;-77
2020/12/02 06:48:40;;;;;;;60.83;27.38;;;;;;;5.07;95.21;100528.97;5055326;28;20114;-78
2020/12/02 06:51:14;;;;;;;67.50;28.98;;;;;;;5.01;95.51;100528.25;5055765;28;20049;-77
2020/12/02 06:53:41;;;;;;;66.22;28.58;;;;;;;4.94;95.53;100518.78;5057328;28;20063;-78
2020/12/02 06:56:17;;;;;;;52.25;26.33;;;;;;;5.00;95.92;100530.94;5055117;28;20099;-76
2020/12/02 06:58:43;;;;;;;58.13;26.55;;;;;;;5.03;95.98;100530.84;5053478;28;20773;-73
2020/12/02 07:01:20;;;;;;;60.03;27.38;;;;;;;5.00;95.77;100526.53;5054783;28;20060;-77
2020/12/02 07:03:46;;;;;;;61.38;26.42;;;;;;;4.88;96.21;100511.91;5055037;28;20064;-80
2020/12/02 07:06:20;;;;;;;62.15;27.65;;;;;;;5.00;96.21;100520.34;5054724;28;20099;-78
2020/12/02 07:08:50;;;;;;;63.35;25.13;;;;;;;5.01;97.12;100522.97;5055109;28;20131;-78
2020/12/02 07:11:19;;;;;;;66.15;27.17;;;;;;;5.02;96.64;100518.53;5054868;28;20056;-77
2020/12/02 07:13:49;;;;;;;66.55;28.80;;;;;;;4.95;95.92;100509.91;5054297;28;20381;-76
2020/12/02 07:16:20;;;;;;;59.28;28.38;;;;;;;5.05;96.60;100522.88;5054261;28;20466;-76
2020/12/02 07:18:53;;;;;;;74.07;28.67;;;;;;;5.06;96.61;100521.97;5054241;28;20075;-76
2020/12/02 07:21:33;;;;;;;79.65;33.63;;;;;;;5.02;96.05;100524.69;5057468;28;20057;-76
2020/12/02 07:24:00;;;;;;;82.00;34.60;;;;;;;5.07;95.99;100526.31;5057189;28;20114;-75
2020/12/02 07:26:28;;;;;;;66.95;32.03;;;;;;;5.05;96.32;100520.22;5057858;28;20057;-76
2020/12/02 07:28:59;;;;;;;71.60;32.95;;;;;;;5.06;96.57;100525.44;5057876;28;20063;-79
2020/12/02 07:31:27;;;;;;;58.47;27.92;;;;;;;5.05;96.08;100520.22;5058627;28;20049;-76
2020/12/02 07:34:03;;;;;;;57.72;27.73;;;;;;;5.06;95.73;100511.38;5058783;28;20052;-78
2020/12/02 07:36:32;;;;;;;51.92;27.52;;;;;;;4.97;95.08;100508.09;5057232;28;20171;-78
2020/12/02 07:39:10;;;;;;;48.97;25.13;;;;;;;5.08;95.64;100525.41;5057284;28;20059;-74
2020/12/02 07:41:49;;;;;;;47.00;24.23;;;;;;;5.06;95.44;100525.44;5058642;28;20049;-78
2020/12/02 07:44:16;;;;;;;39.63;21.75;;;;;;;5.06;94.74;100519.31;5058554;28;20052;-80
2020/12/02 07:46:44;;;;;;;40.10;21.75;;;;;;;4.78;95.16;100480.53;5058229;28;20053;-78
2020/12/02 07:49:14;;;;;;;42.25;21.40;;;;;;;5.09;94.46;100524.50;5057399;28;20045;-79
2020/12/02 07:51:50;;;;;;;35.88;21.20;;;;;;;4.99;94.60;100516.84;5058373;28;20059;-79
2020/12/02 07:54:25;;;;;;;34.55;21.45;;;;;;;5.00;94.48;100512.41;5058297;28;20060;-76
2020/12/02 07:56:52;;;;;;;37.63;21.13;;;;;;;4.96;95.48;100524.03;5058568;28;20060;-81
2020/12/02 07:59:29;;;;;;;33.90;20.33;;;;;;;4.96;95.34;100514.28;5058116;28;20152;-79
2020/12/02 08:01:58;;;;;;;33.00;20.92;;;;;;;5.02;94.70;100519.38;5057208;28;20061;-78
2020/12/02 08:04:39;;;;;;;34.28;21.10;;;;;;;4.98;95.54;100523.06;5057599;28;20223;-80
2020/12/02 08:07:12;;;;;;;36.63;21.10;;;;;;;4.99;95.96;100526.56;5058248;28;20061;-84
2020/12/02 08:09:59;;;;;;;33.20;19.65;;;;;;;5.02;96.31;100516.75;5059825;28;20055;-80
2020/12/02 08:12:25;;;;;;;32.33;18.92;;;;;;;5.03;96.24;100521.13;5058708;28;20431;-80
2020/12/02 08:15:00;;;;;;;37.10;21.52;;;;;;;5.01;96.67;100522.09;5058782;28;20057;-79
2020/12/02 08:17:28;;;;;;;40.35;21.52;;;;;;;5.07;96.73;100519.22;5059458;28;20053;-80
2020/12/02 08:19:59;;;;;;;38.55;22.08;;;;;;;4.97;96.91;100510.72;5058895;28;20057;-83
2020/12/02 08:22:45;;;;;;;44.05;24.33;;;;;;;5.06;96.23;100519.31;5058947;28;20450;-82
2020/12/02 08:25:21;;;;;;;49.50;25.75;;;;;;;5.02;95.99;100514.09;5055220;28;20053;-78
2020/12/02 08:27:53;;;;;;;49.25;25.23;;;;;;;5.07;95.55;100516.59;5056395;28;20490;-79
2020/12/02 08:30:24;;;;;;;52.33;30.00;;;;;;;5.01;95.31;100499.16;5057094;28;20358;-77
2020/12/02 08:32:59;;;;;;;50.30;27.27;;;;;;;5.10;95.85;100505.03;5057461;28;20111;-78
2020/12/02 08:35:31;;;;;;;51.35;28.52;;;;;;;5.11;95.23;100502.34;5057480;28;20083;-76
2020/12/02 08:37:59;;;;;;;55.25;29.15;;;;;;;5.09;95.43;100498.91;5057007;28;20143;-77
2020/12/02 08:40:52;;;;;;;48.40;27.40;;;;;;;5.11;96.27;100493.53;5057347;28;20061;-78
2020/12/02 08:43:33;;;;;;;49.75;28.15;;;;;;;5.14;96.00;100501.41;5056915;28;20075;-79
2020/12/02 08:46:12;;;;;;;49.10;26.98;;;;;;;5.18;96.01;100491.56;5056267;28;20435;-77
2020/12/02 08:48:42;;;;;;;52.97;27.52;;;;;;;5.10;95.56;100482.13;5057120;28;20423;-75
2020/12/02 08:51:14;;;;;;;51.15;28.65;;;;;;;5.15;95.57;100489.88;5057201;28;20052;-76
2020/12/02 08:53:41;;;;;;;52.97;26.75;;;;;;;5.21;95.35;100492.34;5057642;28;20139;-79
2020/12/02 08:56:26;;;;;;;46.08;26.02;;;;;;;5.22;95.15;100488.78;5057228;28;20048;-77
2020/12/02 08:58:52;;;;;;;50.40;27.52;;;;;;;5.07;95.23;100461.03;5056656;28;20095;-78
2020/12/02 09:01:19;;;;;;;45.38;25.85;;;;;;;5.08;96.35;100460.13;5057002;28;20049;-79
2020/12/02 09:03:45;;;;;;;43.95;25.40;;;;;;;5.18;96.01;100470.41;5057213;28;20061;-78
2020/12/02 09:06:15;;;;;;;47.72;25.80;;;;;;;5.24;96.30;100486.94;5057093;28;20049;-79
2020/12/02 09:08:42;;;;;;;42.43;24.57;;;;;;;5.29;95.93;100479.69;5056998;28;20152;-78
2020/12/02 09:11:11;;;;;;;44.30;25.23;;;;;;;4.95;95.73;100417.34;5055974;28;20059;-78
2020/12/02 09:13:38;;;;;;;40.03;22.38;;;;;;;5.21;95.61;100468.50;5055911;28;20059;-78
2020/12/02 09:16:04;;;;;;;43.85;24.83;;;;;;;5.28;94.71;100475.34;5057026;28;20049;-76
2020/12/02 09:18:33;;;;;;;39.28;24.40;;;;;;;5.35;94.69;100470.72;5056084;28;20069;-77
2020/12/02 09:20:59;;;;;;;40.50;25.40;;;;;;;5.35;94.82;100478.66;5056587;28;20057;-74
2020/12/02 09:23:25;;;;;;;44.35;24.63;;;;;;;5.37;94.76;100478.56;5056827;28;20389;-76
2020/12/02 09:25:51;;;;;;;43.88;27.23;;;;;;;5.40;94.95;100478.50;5058737;28;20118;-77
2020/12/02 09:28:17;;;;;;;44.10;27.58;;;;;;;5.45;94.30;100471.22;5058667;28;20068;-76
2020/12/02 09:30:44;;;;;;;41.38;26.35;;;;;;;5.31;94.08;100445.25;5063318;28;20059;-78
2020/12/02 09:33:10;;;;;;;44.22;28.05;;;;;;;5.50;93.49;100464.00;5061849;28;20339;-78
2020/12/02 09:35:37;;;;;;;44.42;28.23;;;;;;;5.51;94.09;100465.72;5061518;28;20045;-78
2020/12/02 09:38:04;;;;;;;44.92;27.30;;;;;;;5.47;94.80;100458.81;5059137;28;20048;-77
2020/12/02 09:40:31;;;;;;;49.85;28.13;;;;;;;5.54;93.55;100451.50;5060943;28;20448;-75
2020/12/02 09:43:44;;;;;;;52.03;31.50;;;;;;;5.56;93.34;100460.28;5055856;28;20055;-77
2020/12/02 09:46:17;;;;;;;;;;;;;;;5.53;93.60;100453.31;5048288;28;20049;-77
2020/12/02 09:48:45;;;;;;;48.08;28.25;;;;;;;5.51;92.18;100444.53;5054870;28;19928;-77
2020/12/02 09:51:21;;;;;;;49.35;30.02;;;;;;;5.54;92.76;100444.44;5056160;28;20378;-77
2020/12/02 09:53:48;;;;;;;48.85;30.45;;;;;;;5.46;92.99;100433.28;5053662;28;20429;-77
2020/12/02 09:56:18;;;;;;;50.00;30.77;;;;;;;5.55;93.26;100440.88;5056079;28;20075;-79
2020/12/02 09:58:44;;;;;;;51.67;31.70;;;;;;;5.52;93.17;100437.47;5054657;28;20064;-76
2020/12/02 10:01:28;;;;;;;51.45;31.27;;;;;;;5.56;93.04;100439.09;5055278;28;20045;-75
2020/12/02 10:03:57;;;;;;;48.58;30.55;;;;;;;5.57;92.47;100436.38;5055653;28;20117;-77
2020/12/02 10:06:47;;;;;;;52.03;31.35;;;;;;;5.56;92.96;100432.00;5055655;28;20048;-77
2020/12/02 10:09:19;;;;;;;55.45;32.53;;;;;;;5.62;93.90;100424.78;5049209;28;20110;-77
2020/12/02 10:11:59;;;;;;;49.53;29.40;;;;;;;5.66;94.55;100429.06;5055394;28;20052;-76
2020/12/02 10:14:51;;;;;;;45.83;28.55;;;;;;;5.69;94.65;100426.28;5054247;28;20496;-77
2020/12/02 10:17:36;;;;;;;51.95;29.55;;;;;;;5.69;94.06;100415.69;5047153;28;20319;-77
2020/12/02 10:20:22;;;;;;;46.25;28.50;;;;;;;5.69;92.07;100403.31;5049497;28;20053;-77
2020/12/02 10:23:02;;;;;;;47.78;29.17;;;;;;;5.69;91.72;100386.56;5055442;28;20053;-80
2020/12/02 10:25:46;;;;;;;50.88;29.48;;;;;;;5.76;91.73;100401.28;5048640;28;20053;-78
2020/12/02 10:28:27;;;;;;;49.63;29.33;;;;;;;5.80;92.33;100394.09;5055749;28;20056;-78
2020/12/02 10:31:22;;;;;;;49.03;29.55;;;;;;;5.85;91.70;100395.63;5055760;28;20045;-79
2020/12/02 10:33:53;;;;;;;47.30;29.48;;;;;;;5.87;91.70;100394.75;5055590;28;20111;-78
2020/12/02 10:36:24;;;;;;;47.55;28.75;;;;;;;5.89;91.73;100384.94;5054984;28;20122;-78
2020/12/02 10:38:55;;;;;;;55.53;29.30;;;;;;;5.93;91.77;100382.13;5053907;28;20060;-78
2020/12/02 10:42:01;;;;;;;51.13;30.63;;;;;;;5.90;91.17;100379.59;5053890;28;20041;-78
2020/12/02 10:45:02;;;;;;;55.90;31.33;;;;;;;5.87;91.40;100376.19;5053899;28;20270;-78
2020/12/02 10:47:56;;;;;;;57.07;30.37;;;;;;;5.86;91.23;100367.38;5054913;28;20056;-77
2020/12/02 10:50:25;;;;;;;56.90;30.83;;;;;;;5.89;91.39;100361.94;5053623;28;20371;-77
2020/12/02 10:52:54;;;;;;;47.28;30.20;;;;;;;5.94;90.80;100360.00;5054350;28;20053;-77
2020/12/02 10:55:25;;;;;;;51.60;30.00;;;;;;;5.88;91.57;100343.50;5054883;28;20370;-77
2020/12/02 10:58:02;;;;;;;46.50;28.07;;;;;;;5.93;91.87;100352.09;5054510;28;20075;-77
2020/12/02 11:00:31;;;;;;;50.83;29.90;;;;;;;5.98;91.31;100337.78;5054802;28;20576;-78
2020/12/02 11:03:18;;;;;;;55.20;30.13;;;;;;;6.04;91.19;100333.19;5054804;28;20139;-78
2020/12/02 11:06:17;;;;;;;51.97;28.77;;;;;;;6.04;91.11;100323.44;5055334;28;20048;-78
2020/12/02 11:08:58;;;;;;;52.80;28.38;;;;;;;5.99;90.72;100314.75;5055326;28;20049;-78
2020/12/02 11:11:54;;;;;;;47.95;28.52;;;;;;;5.96;91.62;100320.19;5055326;28;20057;-76
2020/12/02 11:14:31;;;;;;;55.28;29.63;;;;;;;5.99;91.92;100320.06;5054919;28;20047;-78
2020/12/02 11:17:24;;;;;;;56.13;30.08;;;;;;;5.91;91.85;100307.16;5055633;28;20044;-77
2020/12/02 11:19:57;;;;;;;46.60;27.58;;;;;;;5.92;90.65;100318.59;5054014;28;20374;-79
2020/12/02 11:22:32;;;;;;;49.63;27.23;;;;;;;5.92;91.34;100314.16;5056010;28;20118;-78
2020/12/02 11:25:18;;;;;;;47.53;27.33;;;;;;;5.94;90.77;100314.97;5042685;28;20057;-76
2020/12/02 11:27:45;;;;;;;44.15;26.98;;;;;;;5.98;91.50;100323.66;5037861;28;20429;-77
2020/12/02 11:30:23;;;;;;;47.53;28.65;;;;;;;5.99;91.67;100320.06;5033957;28;20124;-78
2020/12/02 11:32:58;;;;;;;46.30;27.63;;;;;;;5.98;91.56;100319.22;5035178;28;20057;-77
2020/12/02 11:36:05;;;;;;;50.40;28.65;;;;;;;6.01;91.93;100309.41;5037130;28;20048;-78
2020/12/02 11:38:46;;;;;;;46.53;27.77;;;;;;;5.97;91.76;100306.03;5033499;28;20494;-79
2020/12/02 11:41:39;;;;;;;51.65;30.80;;;;;;;6.08;93.35;100303.84;5054666;28;20052;-77
2020/12/02 11:44:14;;;;;;;51.50;29.80;;;;;;;6.09;92.86;100299.41;5052145;28;20053;-78